Time;durP1;ratioP1;P1;durP2;ratioP2;P2;SDS_P1;SDS_P2;PMS_P1;PMS_P2;Temp;Humidity;BMP_temperature;BMP_pressure;BME280_temperature;BME280_humidity;BME280_pressure;Samples;Min_cycle;Max_cycle;Signal;HPM_P1;HPM_P2
2022/06/13 00:01:31;;;;;;;2.30;1.75;;;19.40;89.60;;;;;;5049411;28;20070;-78
2022/06/13 00:04:00;;;;;;;2.20;1.30;;;19.80;89.30;;;;;;5033439;28;20112;-74
2022/06/13 00:06:28;;;;;;;2.17;1.40;;;20.00;87.00;;;;;;5035209;28;20028;-77
2022/06/13 00:08:55;;;;;;;2.00;1.30;;;19.80;85.40;;;;;;5048452;28;20078;-77
2022/06/13 00:11:25;;;;;;;4.35;1.63;;;20.10;86.00;;;;;;5051545;28;20025;-77
2022/06/13 00:13:55;;;;;;;2.75;1.30;;;20.00;86.20;;;;;;5038049;28;20025;-76
2022/06/13 00:16:23;;;;;;;2.33;1.55;;;20.00;86.40;;;;;;5051430;28;20021;-76
2022/06/13 00:18:51;;;;;;;1.80;1.30;;;20.40;85.00;;;;;;5048615;28;20143;-78
2022/06/13 00:21:28;;;;;;;1.90;1.40;;;20.70;85.60;;;;;;5040085;28;20033;-77
2022/06/13 00:23:56;;;;;;;1.90;1.27;;;20.90;84.80;;;;;;5036081;28;20486;-76
2022/06/13 00:26:25;;;;;;;1.60;1.20;;;21.10;84.00;;;;;;5051102;28;20032;-77
2022/06/13 00:28:54;;;;;;;2.53;1.40;;;21.10;83.00;;;;;;5048653;28;20102;-77
2022/06/13 00:31:22;;;;;;;2.35;1.00;;;21.40;84.50;;;;;;5037213;28;20116;-78
2022/06/13 00:33:49;;;;;;;1.40;0.90;;;21.90;82.50;;;;;;5043840;28;20073;-79
2022/06/13 00:36:17;;;;;;;3.70;1.02;;;22.00;81.20;;;;;;5043688;28;20033;-81
2022/06/13 00:38:45;;;;;;;1.77;1.00;;;22.10;81.50;;;;;;5040918;28;20017;-78
2022/06/13 00:41:16;;;;;;;2.10;0.80;;;21.90;80.70;;;;;;5044267;28;20032;-80
2022/06/13 00:43:45;;;;;;;1.30;0.80;;;22.10;81.00;;;;;;5039748;28;20559;-82
2022/06/13 00:46:21;;;;;;;3.20;1.13;;;22.30;81.60;;;;;;5059693;28;20028;-79
2022/06/13 00:48:52;;;;;;;1.38;0.82;;;22.50;79.60;;;;;;5061444;28;20098;-79
2022/06/13 00:51:19;;;;;;;1.50;1.10;;;23.00;78.80;;;;;;5050170;28;20075;-79
2022/06/13 00:53:47;;;;;;;1.92;1.00;;;23.00;77.40;;;;;;5035782;28;20490;-80
2022/06/13 00:56:21;;;;;;;0.93;0.63;;;22.70;78.90;;;;;;5030990;28;20053;-85
2022/06/13 00:58:56;;;;;;;1.75;0.70;;;22.90;78.80;;;;;;5046576;28;20976;-84
2022/06/13 01:01:25;;;;;;;2.85;0.80;;;23.60;77.30;;;;;;5032132;28;20017;-82
2022/06/13 01:03:52;;;;;;;0.70;0.63;;;23.50;76.80;;;;;;5036357;28;20029;-78
2022/06/13 01:06:21;;;;;;;1.35;0.63;;;23.60;77.00;;;;;;5041908;28;20063;-79
2022/06/13 01:08:48;;;;;;;1.77;0.88;;;24.10;77.40;;;;;;5048353;28;20386;-80
2022/06/13 01:11:21;;;;;;;1.20;0.73;;;24.10;76.80;;;;;;5052542;28;20424;-78
2022/06/13 01:14:07;;;;;;;2.38;0.90;;;24.20;75.60;;;;;;5047208;28;20112;-82
2022/06/13 01:16:46;;;;;;;1.70;0.90;;;24.30;75.70;;;;;;5048027;28;20041;-79
2022/06/13 01:19:41;;;;;;;2.78;0.82;;;24.30;75.00;;;;;;5048678;28;20172;-78
2022/06/13 01:22:38;;;;;;;3.10;1.05;;;24.10;74.70;;;;;;5050396;28;20028;-77
2022/06/13 01:25:30;;;;;;;2.00;1.23;;;24.20;73.90;;;;;;5049462;28;20599;-77
2022/06/13 01:28:33;;;;;;;3.35;0.90;;;24.30;74.40;;;;;;5031031;28;20029;-79
2022/06/13 01:31:21;;;;;;;1.83;0.80;;;24.50;74.30;;;;;;5039020;28;20102;-79
2022/06/13 01:34:03;;;;;;;3.17;1.40;;;24.80;74.40;;;;;;5039049;28;20096;-78
2022/06/13 01:37:03;;;;;;;1.42;0.68;;;25.20;72.90;;;;;;5049618;28;20040;-77
2022/06/13 01:39:45;;;;;;;1.50;0.70;;;25.60;72.10;;;;;;5047416;28;20025;-78
2022/06/13 01:42:33;;;;;;;0.82;0.63;;;25.50;71.90;;;;;;5045581;28;20048;-77
2022/06/13 01:45:31;;;;;;;1.02;0.60;;;26.00;72.30;;;;;;5044772;28;20094;-75
2022/06/13 01:48:13;;;;;;;1.55;0.80;;;25.90;71.90;;;;;;5033959;28;20040;-77
2022/06/13 01:50:53;;;;;;;0.82;0.40;;;25.90;71.30;;;;;;5028236;28;20056;-77
2022/06/13 01:53:33;;;;;;;0.30;0.20;;;25.90;71.00;;;;;;5033549;28;20021;-76
2022/06/13 01:56:15;;;;;;;1.17;0.85;;;26.10;72.20;;;;;;5029794;28;20059;-81
2022/06/13 01:59:01;;;;;;;0.93;0.70;;;26.50;72.50;;;;;;5029470;28;20150;-73
2022/06/13 02:01:37;;;;;;;1.52;0.70;;;26.10;70.60;;;;;;5036894;28;20093;-74
2022/06/13 02:04:24;;;;;;;0.70;0.40;;;26.10;71.50;;;;;;5028006;28;20033;-79
2022/06/13 02:07:11;;;;;;;1.50;0.70;;;26.20;71.70;;;;;;5028875;28;20208;-77
2022/06/13 02:10:05;;;;;;;1.23;0.70;;;26.40;71.90;;;;;;5031228;28;20033;-74
2022/06/13 02:12:36;;;;;;;0.60;0.50;;;26.20;73.60;;;;;;5026753;28;20699;-76
2022/06/13 02:15:08;;;;;;;0.90;0.47;;;26.40;71.20;;;;;;5027864;28;20445;-77
2022/06/13 02:17:47;;;;;;;3.05;0.50;;;26.50;69.70;;;;;;5037741;28;20069;-78
2022/06/13 02:20:22;;;;;;;0.55;0.32;;;26.10;69.50;;;;;;5032652;28;20033;-72
2022/06/13 02:22:57;;;;;;;0.38;0.20;;;25.70;69.60;;;;;;5026542;28;20195;-72
2022/06/13 02:25:29;;;;;;;0.60;0.40;;;25.20;70.30;;;;;;5029769;28;20137;-72
2022/06/13 02:28:04;;;;;;;0.22;0.20;;;25.20;69.30;;;;;;5031751;28;20057;-78
2022/06/13 02:30:53;;;;;;;0.75;0.35;;;25.20;68.60;;;;;;5029329;28;20100;-75
2022/06/13 02:33:35;;;;;;;0.50;0.30;;;25.20;69.70;;;;;;5034273;28;20029;-72
2022/06/13 02:36:26;;;;;;;1.20;0.30;;;25.00;69.70;;;;;;5034444;28;20029;-73
2022/06/13 02:39:00;;;;;;;0.60;0.45;;;24.60;70.60;;;;;;5039981;28;20044;-73
2022/06/13 02:41:35;;;;;;;0.60;0.40;;;24.40;70.40;;;;;;5038441;28;20029;-75
2022/06/13 02:44:40;;;;;;;0.40;0.30;;;24.40;70.70;;;;;;5033595;28;20025;-74
2022/06/13 02:47:19;;;;;;;0.95;0.50;;;24.50;70.60;;;;;;5040355;28;20095;-74
2022/06/13 02:49:59;;;;;;;0.40;0.30;;;24.60;70.20;;;;;;5031620;28;20132;-74
2022/06/13 02:52:39;;;;;;;0.63;0.35;;;24.20;71.00;;;;;;5034455;28;20083;-73
2022/06/13 02:55:11;;;;;;;0.30;0.20;;;24.00;71.50;;;;;;5031843;28;20032;-73
2022/06/13 02:58:17;;;;;;;1.40;0.40;;;23.50;71.80;;;;;;5050571;28;20025;-73
2022/06/13 03:01:29;;;;;;;0.35;0.25;;;23.60;71.10;;;;;;5040752;28;20053;-74
2022/06/13 03:04:06;;;;;;;0.22;0.20;;;23.10;71.60;;;;;;5032276;28;20029;-76
2022/06/13 03:06:57;;;;;;;0.10;0.10;;;23.00;71.60;;;;;;5033172;28;20036;-77
2022/06/13 03:09:54;;;;;;;1.45;0.20;;;22.50;72.00;;;;;;5031842;28;20496;-73
2022/06/13 03:13:01;;;;;;;0.73;0.40;;;22.20;72.60;;;;;;5034246;28;20037;-74
2022/06/13 03:15:40;;;;;;;2.33;0.52;;;21.80;73.30;;;;;;5041952;28;20040;-74
2022/06/13 03:18:17;;;;;;;1.40;0.40;;;21.60;73.80;;;;;;5031861;28;20051;-75
2022/06/13 03:21:01;;;;;;;1.00;0.20;;;21.10;74.00;;;;;;5032519;28;20045;-75
2022/06/13 03:23:46;;;;;;;0.25;0.20;;;20.60;74.10;;;;;;5032151;28;20064;-73
2022/06/13 03:26:28;;;;;;;1.85;0.63;;;20.00;74.70;;;;;;5032093;28;20491;-74
2022/06/13 03:29:05;;;;;;;0.32;0.10;;;19.70;75.70;;;;;;5031287;28;20083;-73
2022/06/13 03:31:52;;;;;;;2.63;0.30;;;19.50;75.10;;;;;;5035194;28;20436;-73
2022/06/13 03:34:28;;;;;;;0.55;0.20;;;19.50;76.70;;;;;;5029044;28;20098;-72
2022/06/13 03:37:06;;;;;;;0.30;0.30;;;19.40;77.10;;;;;;5034037;28;20025;-74
2022/06/13 03:39:49;;;;;;;0.20;0.10;;;19.00;76.70;;;;;;5032062;28;20045;-75
2022/06/13 03:42:22;;;;;;;0.30;0.20;;;18.50;77.30;;;;;;5030266;28;20473;-74
2022/06/13 03:45:16;;;;;;;0.43;0.20;;;18.30;78.80;;;;;;5045874;28;20041;-78
2022/06/13 03:48:05;;;;;;;0.65;0.20;;;18.10;79.50;;;;;;5029158;28;20037;-75
2022/06/13 03:50:56;;;;;;;0.73;0.55;;;18.00;79.70;;;;;;5035167;28;20132;-79
2022/06/13 03:53:30;;;;;;;0.57;0.20;;;17.70;79.90;;;;;;5031782;28;20057;-78
2022/06/13 03:56:15;;;;;;;1.15;0.20;;;17.50;80.70;;;;;;5031652;28;20021;-73
2022/06/13 03:58:52;;;;;;;1.40;0.40;;;17.40;80.90;;;;;;5031544;28;20033;-78
2022/06/13 04:01:42;;;;;;;1.55;0.20;;;17.40;80.50;;;;;;5033648;28;20040;-72
2022/06/13 04:04:21;;;;;;;0.20;0.20;;;17.20;80.40;;;;;;5029505;28;20032;-76
2022/06/13 04:06:48;;;;;;;0.60;0.20;;;17.20;81.20;;;;;;5030924;28;20037;-77
2022/06/13 04:09:24;;;;;;;0.22;0.20;;;17.10;81.00;;;;;;5031965;28;20021;-78
2022/06/13 04:12:22;;;;;;;0.20;0.13;;;17.00;80.30;;;;;;5032415;28;20448;-81
2022/06/13 04:15:25;;;;;;;0.30;0.20;;;17.10;80.40;;;;;;5029571;28;20055;-79
2022/06/13 04:18:13;;;;;;;1.30;0.20;;;17.10;80.50;;;;;;5037397;28;20133;-73
2022/06/13 04:21:04;;;;;;;0.38;0.20;;;17.00;80.40;;;;;;5029441;28;20030;-77
2022/06/13 04:23:34;;;;;;;0.55;0.20;;;17.00;80.60;;;;;;5031831;28;20484;-76
2022/06/13 04:26:20;;;;;;;0.40;0.20;;;16.80;80.90;;;;;;5047241;28;20499;-74
2022/06/13 04:28:56;;;;;;;1.33;0.55;;;16.70;80.50;;;;;;5035701;28;20032;-71
2022/06/13 04:31:27;;;;;;;0.20;0.20;;;16.60;81.50;;;;;;5036369;28;20033;-70
2022/06/13 04:34:07;;;;;;;1.42;0.28;;;16.50;82.00;;;;;;5033833;28;20079;-72
2022/06/13 04:36:35;;;;;;;0.95;0.40;;;16.60;81.90;;;;;;5031060;28;20033;-76
2022/06/13 04:39:08;;;;;;;0.20;0.20;;;16.60;81.70;;;;;;5028381;28;20064;-75
2022/06/13 04:41:39;;;;;;;1.50;0.30;;;16.60;81.80;;;;;;5031006;28;20529;-79
2022/06/13 04:44:10;;;;;;;0.45;0.30;;;16.50;82.20;;;;;;5030048;28;20072;-73
2022/06/13 04:46:38;;;;;;;0.47;0.40;;;16.50;82.50;;;;;;5029953;28;20025;-75
2022/06/13 04:49:15;;;;;;;0.22;0.17;;;16.50;82.40;;;;;;5029681;28;20057;-70
2022/06/13 04:51:45;;;;;;;0.63;0.30;;;16.60;81.80;;;;;;5031297;28;20022;-76
2022/06/13 04:54:30;;;;;;;0.80;0.30;;;16.40;81.70;;;;;;5032007;28;21243;-82
2022/06/13 04:56:59;;;;;;;0.65;0.30;;;16.30;83.00;;;;;;5033046;28;20033;-73
2022/06/13 04:59:28;;;;;;;0.35;0.32;;;16.20;81.80;;;;;;5040200;28;20028;-71
2022/06/13 05:01:57;;;;;;;0.85;0.35;;;16.10;82.00;;;;;;5049383;28;20124;-74
2022/06/13 05:04:29;;;;;;;0.22;0.20;;;16.10;83.00;;;;;;5043576;28;20049;-74
2022/06/13 05:07:18;;;;;;;0.57;0.30;;;16.10;82.70;;;;;;5032305;28;20474;-74
2022/06/13 05:10:10;;;;;;;1.92;0.40;;;16.10;81.90;;;;;;5028821;28;20026;-70
2022/06/13 05:12:43;;;;;;;0.90;0.30;;;16.00;83.20;;;;;;5031727;28;20427;-74
2022/06/13 05:15:22;;;;;;;2.10;0.50;;;15.90;83.00;;;;;;5025552;28;20112;-74
2022/06/13 05:18:10;;;;;;;1.08;0.73;;;15.90;82.10;;;;;;5034910;28;20021;-76
2022/06/13 05:21:01;;;;;;;3.45;0.52;;;15.90;82.10;;;;;;5036886;28;20548;-81
2022/06/13 05:23:40;;;;;;;1.30;0.38;;;16.00;82.40;;;;;;5028589;28;20230;-80
2022/06/13 05:26:08;;;;;;;0.73;0.40;;;16.00;82.60;;;;;;5030818;28;20037;-79
2022/06/13 05:28:37;;;;;;;1.63;0.40;;;15.90;83.00;;;;;;5033713;28;20045;-81
2022/06/13 05:31:10;;;;;;;2.17;0.57;;;16.00;82.80;;;;;;5027008;28;20043;-79
2022/06/13 05:33:41;;;;;;;1.83;0.55;;;15.90;83.30;;;;;;5028088;28;20029;-77
2022/06/13 05:36:12;;;;;;;1.25;0.60;;;15.90;84.00;;;;;;5028452;28;20078;-72
2022/06/13 05:38:47;;;;;;;1.02;0.43;;;16.00;84.10;;;;;;5029598;28;20451;-73
2022/06/13 05:41:15;;;;;;;1.38;0.65;;;16.00;84.10;;;;;;5030912;28;20076;-77
2022/06/13 05:43:42;;;;;;;1.88;0.57;;;16.00;84.10;;;;;;5026642;28;20120;-77
2022/06/13 05:46:23;;;;;;;1.02;0.50;;;16.00;83.60;;;;;;5028435;28;20029;-73
2022/06/13 05:48:51;;;;;;;1.55;0.40;;;16.00;83.10;;;;;;5028726;28;20048;-75
2022/06/13 05:51:18;;;;;;;1.05;0.75;;;15.90;83.80;;;;;;5030912;28;20253;-78
2022/06/13 05:53:46;;;;;;;1.05;0.40;;;15.90;82.80;;;;;;5029545;28;20116;-76
2022/06/13 05:56:14;;;;;;;0.90;0.57;;;15.90;83.30;;;;;;5030148;28;20057;-78
2022/06/13 05:58:41;;;;;;;0.70;0.40;;;15.80;84.00;;;;;;5029053;28;20937;-74
2022/06/13 06:01:10;;;;;;;0.65;0.38;;;15.80;84.70;;;;;;5030347;28;20060;-77
2022/06/13 06:03:37;;;;;;;0.85;0.47;;;15.70;85.10;;;;;;5033563;28;20112;-74
2022/06/13 06:06:05;;;;;;;0.65;0.30;;;15.80;85.50;;;;;;5039911;28;20140;-77
2022/06/13 06:08:37;;;;;;;2.60;1.33;;;15.80;85.50;;;;;;5039627;28;20361;-78
2022/06/13 06:11:05;;;;;;;1.35;0.70;;;15.80;85.50;;;;;;5030566;28;20099;-77
2022/06/13 06:13:32;;;;;;;2.58;0.60;;;15.90;84.20;;;;;;5038153;28;20034;-74
2022/06/13 06:16:02;;;;;;;1.98;1.10;;;16.00;84.40;;;;;;5050591;28;20028;-75
2022/06/13 06:18:30;;;;;;;1.80;0.50;;;16.00;84.40;;;;;;5037340;28;20124;-77
2022/06/13 06:20:58;;;;;;;2.85;0.77;;;16.10;84.70;;;;;;5035095;28;20029;-74
2022/06/13 06:23:26;;;;;;;1.88;0.45;;;16.10;85.40;;;;;;5030613;28;20801;-75
2022/06/13 06:25:53;;;;;;;1.80;0.60;;;16.00;84.50;;;;;;5032292;28;20977;-78
2022/06/13 06:28:26;;;;;;;0.90;0.63;;;15.90;84.70;;;;;;5032238;28;20018;-76
2022/06/13 06:30:55;;;;;;;2.13;0.50;;;15.80;85.80;;;;;;5042263;28;20030;-76
2022/06/13 06:33:23;;;;;;;2.25;0.80;;;15.60;86.60;;;;;;5031677;28;20091;-77
2022/06/13 06:35:54;;;;;;;1.58;1.13;;;15.50;85.70;;;;;;5029718;28;20030;-75
2022/06/13 06:38:24;;;;;;;2.13;1.05;;;15.30;85.80;;;;;;5030347;28;20037;-74
2022/06/13 06:40:52;;;;;;;3.30;1.33;;;15.10;87.00;;;;;;5034985;28;20506;-74
2022/06/13 06:43:20;;;;;;;1.85;0.95;;;14.90;87.30;;;;;;5046367;28;20025;-73
2022/06/13 06:45:47;;;;;;;1.25;0.60;;;14.70;87.50;;;;;;5038959;28;20048;-74
2022/06/13 06:48:17;;;;;;;3.20;0.80;;;14.60;88.50;;;;;;5036823;28;20021;-74
2022/06/13 06:50:46;;;;;;;2.30;1.20;;;14.50;88.40;;;;;;5048924;28;20093;-75
2022/06/13 06:53:14;;;;;;;2.38;1.10;;;14.40;88.40;;;;;;5037117;28;20029;-76
2022/06/13 07:01:16;;;;;;;2.70;1.17;;;14.00;90.30;;;;;;5034360;28;20346;-75
2022/06/13 07:03:44;;;;;;;2.88;1.73;;;13.80;90.50;;;;;;5048976;28;20513;-77
2022/06/13 07:06:13;;;;;;;2.65;1.67;;;13.70;90.60;;;;;;5038120;28;20032;-76
2022/06/13 07:08:41;;;;;;;2.80;1.83;;;13.60;90.90;;;;;;5029041;28;20034;-71
2022/06/13 07:14:17;;;;;;;3.70;2.05;;;13.40;91.40;;;;;;5041597;28;20056;-76
2022/06/13 07:16:45;;;;;;;3.38;1.80;;;13.30;91.30;;;;;;5038553;28;20051;-72
2022/06/13 07:19:12;;;;;;;3.35;1.85;;;13.10;91.70;;;;;;5037303;28;20104;-76
2022/06/13 07:21:39;;;;;;;3.50;1.98;;;13.00;92.20;;;;;;5049502;28;20472;-75
2022/06/13 07:24:07;;;;;;;3.05;1.50;;;12.90;92.20;;;;;;5047542;28;20045;-75
2022/06/13 07:26:34;;;;;;;3.28;2.97;;;12.80;92.20;;;;;;5036524;28;20034;-75
2022/06/13 07:29:02;;;;;;;3.40;3.10;;;12.60;92.60;;;;;;5041873;28;20452;-73
2022/06/13 07:31:45;;;;;;;3.80;2.63;;;12.50;92.60;;;;;;5035187;28;22767;-77
2022/06/13 07:34:17;;;;;;;4.50;3.20;;;12.40;93.10;;;;;;5040986;28;20356;-76
2022/06/13 07:36:45;;;;;;;4.85;2.92;;;12.30;93.20;;;;;;5032286;28;20030;-79
2022/06/13 07:39:13;;;;;;;6.05;3.17;;;12.20;93.50;;;;;;5036206;28;20460;-80
2022/06/13 07:41:41;;;;;;;6.07;4.47;;;12.00;93.70;;;;;;5038445;28;20116;-77
2022/06/13 07:44:13;;;;;;;6.35;4.57;;;12.00;94.20;;;;;;5040715;28;20029;-77
2022/06/13 07:46:43;;;;;;;6.88;4.78;;;11.90;94.30;;;;;;5048513;28;20082;-76
2022/06/13 07:49:10;;;;;;;7.18;3.85;;;11.70;94.30;;;;;;5049159;28;20048;-77
2022/06/13 07:51:37;;;;;;;6.20;4.28;;;11.70;94.70;;;;;;5039865;28;20030;-77
2022/06/13 07:54:05;;;;;;;7.80;4.53;;;11.50;94.90;;;;;;5067604;28;20040;-78
2022/06/13 07:56:34;;;;;;;6.65;4.53;;;11.40;95.10;;;;;;5036025;28;20030;-76
2022/06/13 07:59:02;;;;;;;18.25;7.22;;;11.30;95.20;;;;;;5049904;28;20052;-75
2022/06/13 08:01:30;;;;;;;9.02;6.75;;;11.20;95.40;;;;;;5035933;28;20025;-75
2022/06/13 08:03:57;;;;;;;10.27;6.57;;;11.10;95.60;;;;;;5044953;28;20421;-77
2022/06/13 08:06:26;;;;;;;11.25;6.45;;;11.00;95.70;;;;;;5044399;28;20057;-75
2022/06/13 08:08:53;;;;;;;13.07;7.63;;;10.90;95.90;;;;;;5046650;28;20410;-75
2022/06/13 08:11:36;;;;;;;10.88;5.93;;;10.90;96.20;;;;;;5038724;28;20025;-77
2022/06/13 08:14:06;;;;;;;11.57;7.07;;;10.80;96.20;;;;;;5036366;28;20032;-76
2022/06/13 08:16:36;;;;;;;9.18;6.38;;;10.70;96.60;;;;;;5045790;28;20548;-75
2022/06/13 08:19:06;;;;;;;11.55;7.10;;;10.60;96.90;;;;;;5039818;28;20053;-75
2022/06/13 08:21:36;;;;;;;11.90;8.88;;;10.60;97.20;;;;;;5037615;28;20455;-75
2022/06/13 08:24:05;;;;;;;10.57;7.35;;;10.60;97.50;;;;;;5044372;28;20407;-78
2022/06/13 08:26:35;;;;;;;15.25;8.75;;;10.50;97.40;;;;;;5031588;28;20055;-76
2022/06/13 08:29:03;;;;;;;13.30;8.07;;;10.40;97.60;;;;;;5036929;28;20028;-76
2022/06/13 08:31:32;;;;;;;13.65;7.78;;;10.40;97.70;;;;;;5047719;28;20037;-78
2022/06/13 08:33:59;;;;;;;17.42;10.63;;;10.30;98.00;;;;;;5045247;28;20109;-79
2022/06/13 08:36:27;;;;;;;28.83;19.45;;;10.20;98.10;;;;;;5046555;28;20033;-76
2022/06/13 08:38:54;;;;;;;40.53;26.35;;;10.20;98.30;;;;;;5048542;28;20131;-76
2022/06/13 08:41:36;;;;;;;40.15;23.98;;;10.00;98.30;;;;;;5038739;28;20811;-77
2022/06/13 08:44:39;;;;;;;37.90;22.67;;;9.90;98.50;;;;;;5038219;28;20044;-73
2022/06/13 08:47:57;;;;;;;23.73;14.75;;;9.90;98.80;;;;;;5031115;28;20041;-77
2022/06/13 08:50:46;;;;;;;17.23;12.20;;;9.80;99.10;;;;;;5101829;27;20451;-74
2022/06/13 08:53:30;;;;;;;18.05;10.02;;;9.80;99.20;;;;;;5078535;28;20114;-75
2022/06/13 08:56:08;;;;;;;15.48;9.82;;;9.70;99.20;;;;;;5083554;28;20028;-77
2022/06/13 08:58:47;;;;;;;16.63;9.73;;;9.70;99.50;;;;;;5097136;28;20392;-76
2022/06/13 09:01:17;;;;;;;12.32;8.35;;;9.60;99.50;;;;;;5086311;28;20035;-77
2022/06/13 09:04:05;;;;;;;13.07;8.93;;;9.60;99.60;;;;;;5082781;28;20099;-74
2022/06/13 09:06:53;;;;;;;14.52;8.15;;;9.50;99.50;;;;;;5072385;28;20032;-77
2022/06/13 09:09:46;;;;;;;11.07;7.22;;;9.40;99.60;;;;;;5078931;28;20095;-77
2022/06/13 09:12:25;;;;;;;15.80;8.00;;;9.40;99.80;;;;;;5084350;28;20021;-77
2022/06/13 09:15:08;;;;;;;15.30;10.93;;;9.40;99.90;;;;;;5086925;28;20522;-75
2022/06/13 09:17:53;;;;;;;17.38;11.90;;;9.40;99.90;;;;;;5090124;28;20059;-76
2022/06/13 09:20:35;;;;;;;17.75;11.70;;;9.20;99.90;;;;;;5092691;28;20389;-77
2022/06/13 09:23:32;;;;;;;25.35;14.18;;;9.20;99.90;;;;;;5083649;28;20128;-76
2022/06/13 09:26:15;;;;;;;23.00;14.10;;;9.20;99.90;;;;;;5100918;28;20122;-77
2022/06/13 09:28:51;;;;;;;19.15;12.25;;;9.10;99.90;;;;;;5092504;28;20432;-78
2022/06/13 09:31:43;;;;;;;18.00;12.10;;;9.10;99.90;;;;;;5069238;28;20040;-77
2022/06/13 09:34:33;;;;;;;22.77;13.18;;;9.00;99.90;;;;;;5082939;28;20379;-76
2022/06/13 09:37:11;;;;;;;19.63;13.77;;;9.00;99.90;;;;;;5065553;28;20040;-76
2022/06/13 09:39:40;;;;;;;26.27;13.88;;;9.00;99.90;;;;;;5075061;28;20090;-74
2022/06/13 09:42:49;;;;;;;23.30;14.20;;;9.00;99.90;;;;;;5079004;28;20028;-74
2022/06/13 09:45:34;;;;;;;10.80;5.50;;;9.00;99.90;;;;;;5086444;28;20887;-73
2022/06/13 09:48:33;;;;;;;9.85;4.32;;;9.00;99.90;;;;;;5083998;28;20028;-72
2022/06/13 09:51:17;;;;;;;7.15;4.10;;;8.90;99.90;;;;;;5070013;28;20122;-78
2022/06/13 09:54:08;;;;;;;11.05;5.70;;;8.80;99.90;;;;;;5096045;28;20032;-74
2022/06/13 09:57:04;;;;;;;11.30;5.40;;;8.70;99.90;;;;;;5090239;28;20031;-78
2022/06/13 09:59:49;;;;;;;9.70;5.10;;;8.70;99.90;;;;;;5068616;28;20051;-74
2022/06/13 10:02:20;;;;;;;8.30;5.35;;;8.70;99.90;;;;;;5066485;28;20111;-76
2022/06/13 10:05:16;;;;;;;8.00;4.55;;;8.60;99.90;;;;;;5076018;28;20437;-76
2022/06/13 10:07:46;;;;;;;;;;;8.60;99.90;;;;;;5072887;28;20394;-76
2022/06/13 10:10:36;;;;;;;7.13;4.03;;;8.60;99.90;;;;;;5075163;28;20018;-78
2022/06/13 10:13:16;;;;;;;8.48;5.57;;;8.60;99.90;;;;;;5084152;28;20075;-76
2022/06/13 10:16:05;;;;;;;10.73;4.93;;;8.60;99.90;;;;;;5078072;28;20050;-77
2022/06/13 10:18:50;;;;;;;7.30;4.82;;;8.60;99.90;;;;;;5077765;28;20021;-77
2022/06/13 10:21:23;;;;;;;6.15;4.50;;;8.70;99.90;;;;;;5067676;28;20509;-77
2022/06/13 10:24:21;;;;;;;6.35;4.68;;;8.70;99.90;;;;;;5071965;28;20024;-76
2022/06/13 10:27:30;;;;;;;4.65;3.75;;;8.80;99.90;;;;;;5059619;28;20024;-77
2022/06/13 10:30:11;;;;;;;8.20;3.70;;;8.90;99.90;;;;;;5060112;28;20040;-74
2022/06/13 10:33:00;;;;;;;5.38;3.10;;;8.90;99.90;;;;;;5070730;28;20031;-75
2022/06/13 10:35:33;;;;;;;4.00;2.78;;;9.00;99.90;;;;;;5075113;28;20110;-75
2022/06/13 10:38:39;;;;;;;3.25;2.72;;;9.00;99.90;;;;;;5074928;28;20460;-75
2022/06/13 10:41:08;;;;;;;5.30;2.77;;;9.10;99.90;;;;;;5060383;28;20036;-74
2022/06/13 10:43:40;;;;;;;5.05;2.72;;;9.10;99.90;;;;;;5074091;28;20040;-75
2022/06/13 10:46:09;;;;;;;10.32;5.57;;;9.10;99.90;;;;;;5066308;28;20078;-76
2022/06/13 10:48:41;;;;;;;9.90;4.97;;;9.10;99.90;;;;;;5058868;28;20040;-73
2022/06/13 10:51:09;;;;;;;8.68;5.57;;;8.90;99.90;;;;;;5075855;28;20032;-76
2022/06/13 10:54:10;;;;;;;9.80;4.70;;;8.70;99.90;;;;;;5070112;28;20028;-76
2022/06/13 10:56:43;;;;;;;11.15;5.13;;;8.50;99.90;;;;;;5071144;28;20021;-76
2022/06/13 10:59:29;;;;;;;10.77;4.90;;;8.40;99.90;;;;;;5080440;28;20545;-73
2022/06/13 11:02:05;;;;;;;11.17;5.63;;;8.20;99.90;;;;;;5082426;28;20029;-75
2022/06/13 11:04:35;;;;;;;12.45;6.00;;;8.10;99.90;;;;;;5071833;28;20094;-74
2022/06/13 11:07:14;;;;;;;7.38;4.75;;;7.90;99.90;;;;;;5081618;28;20036;-74
2022/06/13 11:09:58;;;;;;;9.77;4.78;;;7.90;99.90;;;;;;5075695;28;20079;-75
2022/06/13 11:12:29;;;;;;;10.40;4.57;;;7.70;99.90;;;;;;5066417;28;20032;-75
2022/06/13 11:23:50;;;;;;;8.05;5.60;;;7.70;99.90;;;;;;5066424;28;20279;-73
2022/06/13 11:29:17;;;;;;;9.55;5.75;;;7.60;99.90;;;;;;5014853;28;20558;-75
2022/06/13 11:31:52;;;;;;;8.93;5.78;;;7.60;99.90;;;;;;5071950;28;20054;-78
2022/06/13 11:34:28;;;;;;;11.35;5.30;;;7.50;99.90;;;;;;5069237;28;20024;-74
2022/06/13 11:37:13;;;;;;;10.45;6.55;;;7.50;99.90;;;;;;5050020;28;20096;-74
2022/06/13 11:39:44;;;;;;;12.10;6.68;;;7.40;99.90;;;;;;5066484;28;21936;-75
2022/06/13 11:42:29;;;;;;;6.97;5.90;;;7.40;99.90;;;;;;5070748;28;20024;-74
2022/06/13 11:45:07;;;;;;;9.85;5.38;;;7.40;99.90;;;;;;5069739;28;20028;-75
2022/06/13 11:47:50;;;;;;;9.95;6.18;;;7.30;99.90;;;;;;5068156;28;20056;-73
2022/06/13 11:50:28;;;;;;;13.52;6.88;;;7.30;99.90;;;;;;5062807;28;20044;-77
2022/06/13 11:55:59;;;;;;;8.73;5.20;;;7.20;99.90;;;;;;5068351;28;20046;-74
2022/06/13 11:58:31;;;;;;;11.77;6.15;;;7.20;99.90;;;;;;5063109;28;20024;-73
2022/06/13 12:01:24;;;;;;;10.32;5.60;;;7.10;99.90;;;;;;5063777;28;20108;-75
2022/06/13 12:04:05;;;;;;;12.35;5.70;;;7.10;99.90;;;;;;5058234;28;20036;-74
2022/06/13 12:06:37;;;;;;;10.73;6.43;;;7.00;99.90;;;;;;5068851;28;20044;-77
2022/06/13 12:09:15;;;;;;;10.13;5.47;;;7.00;99.90;;;;;;5063526;28;20024;-77
2022/06/13 12:11:46;;;;;;;8.55;5.22;;;7.00;99.90;;;;;;5068518;28;20115;-77
2022/06/13 12:14:14;;;;;;;6.30;4.32;;;6.90;99.90;;;;;;5068331;28;20052;-75
2022/06/13 12:17:00;;;;;;;6.13;4.25;;;6.90;99.90;;;;;;5064846;28;20024;-76
2022/06/13 12:19:50;;;;;;;7.78;5.60;;;6.90;99.90;;;;;;5061233;28;20391;-76
2022/06/13 12:22:43;;;;;;;8.73;4.15;;;6.80;99.90;;;;;;5053763;28;20035;-76
2022/06/13 12:25:20;;;;;;;9.52;5.13;;;6.90;99.90;;;;;;5077117;28;20020;-75
2022/06/13 12:28:06;;;;;;;8.02;4.75;;;6.80;99.90;;;;;;5070001;28;20050;-76
2022/06/13 12:31:04;;;;;;;5.60;3.53;;;6.80;99.90;;;;;;5057258;28;20726;-75
2022/06/13 12:33:46;;;;;;;7.00;3.88;;;6.90;99.90;;;;;;5053001;28;20546;-77
2022/06/13 12:36:40;;;;;;;8.82;4.75;;;6.90;99.90;;;;;;5081887;28;20040;-76
2022/06/13 12:39:21;;;;;;;9.82;5.97;;;6.80;99.90;;;;;;5077590;28;20038;-75
2022/06/13 12:42:13;;;;;;;12.55;5.43;;;6.80;99.90;;;;;;5079863;28;20028;-74
2022/06/13 12:44:59;;;;;;;8.10;4.78;;;6.80;99.90;;;;;;5066677;28;20029;-74
2022/06/13 12:47:52;;;;;;;8.20;5.10;;;6.80;99.90;;;;;;5068454;28;20046;-75
2022/06/13 12:50:44;;;;;;;5.82;3.88;;;6.80;99.90;;;;;;5060452;28;20056;-76
2022/06/13 12:53:43;;;;;;;8.48;3.90;;;6.80;99.90;;;;;;5061452;28;20037;-77
2022/06/13 12:56:16;;;;;;;6.43;3.05;;;6.80;99.90;;;;;;5069058;28;20032;-76
2022/06/13 12:59:14;;;;;;;4.40;2.80;;;6.90;99.90;;;;;;5060774;28;20044;-76
2022/06/13 13:02:20;;;;;;;14.18;3.25;;;6.90;99.90;;;;;;5023335;28;20041;-76
2022/06/13 13:05:16;;;;;;;5.07;3.13;;;6.90;99.90;;;;;;5057401;28;20035;-78
2022/06/13 13:08:05;;;;;;;6.22;2.95;;;6.90;99.90;;;;;;5062257;28;20058;-80
2022/06/13 13:10:51;;;;;;;4.32;3.25;;;6.90;99.90;;;;;;5052593;28;20645;-80
2022/06/13 13:13:21;;;;;;;3.88;3.08;;;6.90;99.90;;;;;;5063154;28;20387;-76
2022/06/13 13:16:15;;;;;;;4.53;3.47;;;6.90;99.90;;;;;;5070079;28;20066;-78
2022/06/13 13:19:03;;;;;;;5.28;2.90;;;6.90;99.90;;;;;;5061423;28;20096;-78
2022/06/13 13:21:58;;;;;;;4.35;3.15;;;6.80;99.90;;;;;;5065457;28;20174;-77
2022/06/13 13:24:42;;;;;;;4.28;3.33;;;6.80;99.90;;;;;;5062621;28;20024;-75
2022/06/13 13:27:15;;;;;;;5.50;3.78;;;6.80;99.90;;;;;;5081159;28;20024;-75
2022/06/13 13:30:15;;;;;;;4.75;3.40;;;6.80;99.90;;;;;;5063879;28;20182;-75
2022/06/13 13:33:17;;;;;;;4.95;3.20;;;6.70;99.90;;;;;;5050711;28;20029;-78
2022/06/13 13:36:07;;;;;;;8.70;3.30;;;6.70;99.90;;;;;;5067616;28;20047;-78
2022/06/13 13:38:42;;;;;;;4.63;3.28;;;6.70;99.90;;;;;;5067737;28;20075;-77
2022/06/13 13:41:23;;;;;;;6.13;3.35;;;6.70;99.90;;;;;;5060986;28;20129;-74
2022/06/13 13:44:00;;;;;;;6.85;3.60;;;6.70;99.90;;;;;;5069810;28;20486;-74
2022/06/13 13:46:43;;;;;;;5.68;3.33;;;6.70;99.90;;;;;;5085707;28;20119;-76
2022/06/13 13:49:21;;;;;;;5.45;3.10;;;6.70;99.90;;;;;;5062991;28;20051;-74
2022/06/13 13:51:55;;;;;;;4.80;3.08;;;6.70;99.90;;;;;;5066087;28;20088;-76
2022/06/13 13:54:32;;;;;;;4.32;3.03;;;6.60;99.90;;;;;;5062400;28;20032;-75
2022/06/13 13:57:15;;;;;;;4.65;3.67;;;6.50;99.90;;;;;;5068363;28;20032;-76
2022/06/13 13:59:51;;;;;;;7.97;4.15;;;6.50;99.90;;;;;;5060286;28;20515;-75
2022/06/13 14:02:21;;;;;;;;;;;6.40;99.90;;;;;;5057460;28;20036;-74
2022/06/13 14:05:16;;;;;;;6.40;4.25;;;6.30;99.90;;;;;;5060355;28;19909;-76
2022/06/13 14:08:04;;;;;;;8.55;4.32;;;6.20;99.90;;;;;;5068271;28;20060;-76
2022/06/13 14:10:34;;;;;;;5.85;3.97;;;6.00;99.90;;;;;;5065711;28;20040;-74